Time;durP1;ratioP1;P1;durP2;ratioP2;P2;SDS_P1;SDS_P2;PMS_P1;PMS_P2;Temp;Humidity;BMP_temperature;BMP_pressure;BME280_temperature;BME280_humidity;BME280_pressure;Samples;Min_cycle;Max_cycle;Signal;HPM_P1;HPM_P2
2022/06/13 00:01:25;;;;;;;5.95;3.50;;;19.60;99.90;;;;;;5056735;28;20657;-81
2022/06/13 00:03:52;;;;;;;6.97;4.13;;;19.50;99.90;;;;;;5075105;28;20135;-81
2022/06/13 00:06:19;;;;;;;5.63;3.58;;;19.60;99.90;;;;;;5076480;28;20048;-81
2022/06/13 00:08:47;;;;;;;8.15;3.17;;;19.50;99.90;;;;;;5073636;28;20115;-81
2022/06/13 00:11:16;;;;;;;6.55;3.22;;;19.50;99.90;;;;;;5076689;28;20052;-80
2022/06/13 00:13:45;;;;;;;5.75;3.80;;;19.50;99.90;;;;;;5069655;28;20088;-80
2022/06/13 00:16:12;;;;;;;6.25;4.00;;;19.50;99.90;;;;;;5075710;28;20050;-81
2022/06/13 00:18:39;;;;;;;6.75;3.85;;;19.60;99.90;;;;;;5073951;28;20052;-81
2022/06/13 00:21:06;;;;;;;6.65;3.72;;;19.60;99.90;;;;;;5075151;28;20044;-81
2022/06/13 00:23:36;;;;;;;3.92;3.50;;;19.70;99.90;;;;;;5058110;28;20062;-81
2022/06/13 00:26:03;;;;;;;7.15;3.92;;;19.70;99.90;;;;;;5073636;28;20105;-81
2022/06/13 00:28:30;;;;;;;5.60;2.78;;;19.60;99.90;;;;;;5075629;28;20048;-79
2022/06/13 00:30:56;;;;;;;4.65;3.08;;;19.60;99.90;;;;;;5072738;28;20056;-80
2022/06/13 00:33:23;;;;;;;8.45;3.85;;;19.60;99.90;;;;;;5075910;28;20083;-81
2022/06/13 00:35:50;;;;;;;6.07;4.00;;;19.60;99.90;;;;;;5073514;28;20410;-81
2022/06/13 00:38:17;;;;;;;7.70;3.40;;;19.60;99.90;;;;;;5075375;28;20112;-82
2022/06/13 00:40:44;;;;;;;7.20;3.10;;;19.60;99.90;;;;;;5075000;28;20049;-81
2022/06/13 00:43:15;;;;;;;5.88;3.67;;;19.60;99.90;;;;;;5075268;28;20045;-81
2022/06/13 00:45:42;;;;;;;8.60;4.13;;;19.60;99.90;;;;;;5075369;28;20055;-79
2022/06/13 00:48:12;;;;;;;5.97;3.80;;;19.60;99.90;;;;;;5074001;28;20513;-79
2022/06/13 00:50:48;;;;;;;4.65;2.90;;;19.60;99.90;;;;;;5069264;28;20053;-80
2022/06/13 00:53:22;;;;;;;4.63;3.17;;;19.60;99.90;;;;;;5076123;28;20055;-82
2022/06/13 00:55:56;;;;;;;9.13;3.38;;;19.70;99.90;;;;;;5076312;28;20055;-81
2022/06/13 00:58:25;;;;;;;4.72;3.25;;;19.60;99.90;;;;;;5070617;28;20518;-80
2022/06/13 01:00:54;;;;;;;5.97;3.03;;;19.70;99.90;;;;;;5080517;28;20049;-81
2022/06/13 01:03:22;;;;;;;6.40;2.97;;;19.70;99.90;;;;;;5078608;28;20048;-79
2022/06/13 01:05:51;;;;;;;5.28;3.30;;;19.70;99.90;;;;;;5079035;28;20055;-80
2022/06/13 01:08:20;;;;;;;7.10;3.00;;;19.70;99.90;;;;;;5077602;28;20059;-80
2022/06/13 01:13:53;;;;;;;6.50;3.40;;;19.80;99.90;;;;;;5078313;28;20108;-82
2022/06/13 01:16:50;;;;;;;5.38;2.90;;;19.70;99.90;;;;;;5076047;28;20045;-80
2022/06/13 01:19:37;;;;;;;5.45;3.30;;;19.80;99.90;;;;;;5042859;28;20057;-81
2022/06/13 01:22:33;;;;;;;5.85;3.38;;;19.80;99.90;;;;;;5075639;28;20045;-79
2022/06/13 01:25:34;;;;;;;6.00;3.53;;;19.90;99.90;;;;;;5077153;28;20108;-81
2022/06/13 01:28:41;;;;;;;7.00;3.83;;;19.90;99.90;;;;;;5061348;28;20055;-80
2022/06/13 01:31:16;;;;;;;5.70;3.15;;;19.90;99.90;;;;;;5073817;28;20048;-80
2022/06/13 01:34:01;;;;;;;6.72;3.55;;;20.00;99.90;;;;;;5077366;28;20053;-81
2022/06/13 01:36:49;;;;;;;4.47;3.80;;;20.00;99.90;;;;;;5074347;28;20053;-80
2022/06/13 01:39:54;;;;;;;8.25;3.65;;;20.00;99.90;;;;;;5073075;28;20056;-81
2022/06/13 01:42:51;;;;;;;9.63;3.85;;;20.00;99.90;;;;;;5040506;28;20045;-79
2022/06/13 01:45:33;;;;;;;9.40;3.17;;;20.00;99.90;;;;;;5077701;28;20052;-79
2022/06/13 01:48:27;;;;;;;6.38;3.30;;;19.90;99.90;;;;;;5075112;28;20109;-82
2022/06/13 01:51:16;;;;;;;5.22;3.50;;;19.80;99.90;;;;;;5075304;28;20488;-81
2022/06/13 01:53:58;;;;;;;5.80;3.47;;;19.80;99.90;;;;;;5073801;28;20049;-79
2022/06/13 01:56:51;;;;;;;6.40;3.28;;;19.80;99.90;;;;;;5076308;28;20055;-81
2022/06/13 01:59:27;;;;;;;3.80;3.13;;;19.80;99.90;;;;;;5078426;28;20048;-81
2022/06/13 02:02:03;;;;;;;9.10;4.05;;;19.80;99.90;;;;;;5073985;28;20048;-81
2022/06/13 02:04:38;;;;;;;5.50;3.08;;;19.80;99.90;;;;;;5076502;28;20104;-80
2022/06/13 02:07:14;;;;;;;6.78;3.67;;;19.80;99.90;;;;;;5072319;28;20052;-80
2022/06/13 02:09:54;;;;;;;5.80;3.35;;;19.90;99.90;;;;;;5076510;28;20062;-79
2022/06/13 02:12:25;;;;;;;5.75;3.50;;;19.90;99.90;;;;;;5072292;28;20518;-80
2022/06/13 02:14:59;;;;;;;7.00;3.67;;;19.90;99.90;;;;;;5077490;28;20426;-80
2022/06/13 02:17:29;;;;;;;6.63;3.38;;;19.90;99.90;;;;;;5082980;28;20041;-78
2022/06/13 02:20:20;;;;;;;6.00;3.53;;;19.90;99.90;;;;;;5085060;28;20087;-78
2022/06/13 02:23:00;;;;;;;8.48;3.95;;;19.90;99.90;;;;;;5067063;28;20108;-78
2022/06/13 02:25:47;;;;;;;5.72;3.67;;;19.90;99.90;;;;;;5077849;28;20119;-81
2022/06/13 02:28:42;;;;;;;9.00;3.80;;;19.90;99.90;;;;;;5073045;28;20056;-81
2022/06/13 02:31:15;;;;;;;4.82;3.95;;;19.90;99.90;;;;;;5072664;28;20076;-81
2022/06/13 02:34:05;;;;;;;5.32;3.30;;;19.90;99.90;;;;;;5073946;28;20044;-80
2022/06/13 02:36:42;;;;;;;4.07;3.13;;;19.90;99.90;;;;;;5074184;28;20049;-81
2022/06/13 02:39:20;;;;;;;4.80;3.40;;;19.90;99.90;;;;;;5075586;28;20158;-82
2022/06/13 02:41:57;;;;;;;4.07;3.13;;;19.90;99.90;;;;;;5073795;28;20052;-80
2022/06/13 02:44:34;;;;;;;4.25;2.58;;;19.90;99.90;;;;;;5075448;28;20128;-81
2022/06/13 02:47:09;;;;;;;5.65;2.15;;;19.80;99.90;;;;;;5071959;28;20504;-78
2022/06/13 02:49:46;;;;;;;8.65;2.92;;;19.70;99.90;;;;;;5075530;28;20062;-81
2022/06/13 02:52:25;;;;;;;5.80;2.65;;;19.70;99.90;;;;;;5070644;28;20045;-81
2022/06/13 02:54:55;;;;;;;4.70;2.40;;;19.80;99.90;;;;;;5068830;28;20058;-79
2022/06/13 02:57:36;;;;;;;4.82;2.33;;;19.80;99.90;;;;;;5074412;28;20045;-80
2022/06/13 03:00:19;;;;;;;3.85;2.40;;;19.80;99.90;;;;;;5067118;28;20045;-78
2022/06/13 03:03:10;;;;;;;4.45;2.35;;;19.80;99.90;;;;;;5067517;28;20045;-79
2022/06/13 03:06:00;;;;;;;4.65;2.28;;;19.80;99.90;;;;;;5055473;28;20512;-80
2022/06/13 03:08:49;;;;;;;4.10;2.47;;;19.80;99.90;;;;;;5075956;28;20040;-81
2022/06/13 03:11:39;;;;;;;3.90;2.05;;;19.80;99.90;;;;;;5075515;28;20048;-80
2022/06/13 03:14:43;;;;;;;5.03;2.63;;;19.80;99.90;;;;;;5073918;28;20462;-81
2022/06/13 03:17:13;;;;;;;3.83;2.72;;;19.90;99.90;;;;;;5044418;28;20053;-82
2022/06/13 03:19:52;;;;;;;5.40;2.03;;;19.90;99.90;;;;;;5076536;28;20112;-81
2022/06/13 03:22:41;;;;;;;6.78;2.35;;;19.70;99.90;;;;;;5075547;28;20108;-82
2022/06/13 03:25:29;;;;;;;3.53;2.17;;;19.70;99.90;;;;;;5073711;28;20064;-80
2022/06/13 03:28:12;;;;;;;6.43;2.75;;;19.70;99.90;;;;;;5071916;28;20052;-79
2022/06/13 03:30:44;;;;;;;5.22;2.47;;;19.70;99.90;;;;;;5069275;28;20434;-80
2022/06/13 03:36:06;;;;;;;3.80;3.00;;;19.70;99.90;;;;;;5070543;28;20044;-78
2022/06/13 03:38:50;;;;;;;7.18;2.92;;;19.60;99.90;;;;;;5073291;28;20064;-81
2022/06/13 03:41:21;;;;;;;6.07;2.20;;;19.60;99.90;;;;;;5065793;28;20048;-81
2022/06/13 03:44:04;;;;;;;8.45;2.95;;;19.50;99.90;;;;;;5074147;28;20049;-82
2022/06/13 03:46:37;;;;;;;4.72;2.70;;;19.50;99.90;;;;;;5068322;28;20056;-81
2022/06/13 03:49:18;;;;;;;5.20;2.40;;;19.50;99.90;;;;;;5074914;28;20123;-79
2022/06/13 03:51:50;;;;;;;6.20;2.92;;;19.50;99.90;;;;;;5075723;28;20105;-79
2022/06/13 03:54:36;;;;;;;22.17;3.65;;;19.50;99.90;;;;;;5072930;28;20341;-80
2022/06/13 03:57:14;;;;;;;6.88;2.78;;;19.60;99.90;;;;;;5068782;28;20049;-80
2022/06/13 03:59:47;;;;;;;3.20;2.20;;;19.60;99.90;;;;;;5073719;28;20045;-80
2022/06/13 04:02:18;;;;;;;4.45;2.25;;;19.60;99.90;;;;;;5057580;28;20048;-82
2022/06/13 04:04:48;;;;;;;6.93;2.50;;;19.60;99.90;;;;;;5070423;28;20482;-81
2022/06/13 04:07:17;;;;;;;6.18;2.72;;;19.60;99.90;;;;;;5075981;28;20048;-82
2022/06/13 04:09:50;;;;;;;7.72;2.88;;;19.60;99.90;;;;;;5074945;28;20105;-80
2022/06/13 04:12:35;;;;;;;7.65;2.55;;;19.60;99.90;;;;;;5074130;28;20125;-82
2022/06/13 04:15:26;;;;;;;6.45;2.78;;;19.60;99.90;;;;;;5073497;28;20057;-80
2022/06/13 04:18:21;;;;;;;4.40;2.05;;;19.60;99.90;;;;;;5072518;28;20104;-81
2022/06/13 04:21:11;;;;;;;4.60;2.33;;;19.60;99.90;;;;;;5072170;28;20044;-80
2022/06/13 04:24:12;;;;;;;6.53;2.85;;;19.70;99.90;;;;;;5070978;28;20465;-81
2022/06/13 04:27:00;;;;;;;5.32;2.50;;;19.70;99.90;;;;;;5068473;28;20131;-79
2022/06/13 04:29:38;;;;;;;3.35;2.10;;;19.70;99.90;;;;;;5070581;28;20051;-80
2022/06/13 04:32:12;;;;;;;3.42;2.08;;;19.70;99.90;;;;;;5071431;28;20123;-78
2022/06/13 04:34:45;;;;;;;3.58;2.15;;;19.70;99.90;;;;;;5069042;28;20139;-80
2022/06/13 04:37:13;;;;;;;4.47;2.45;;;19.70;99.90;;;;;;5072110;28;20081;-81
2022/06/13 04:39:42;;;;;;;8.05;2.92;;;19.80;99.90;;;;;;5073132;28;20258;-78
2022/06/13 04:42:11;;;;;;;7.07;2.30;;;19.80;99.90;;;;;;5070893;28;20052;-82
2022/06/13 04:44:40;;;;;;;6.43;2.55;;;19.80;99.90;;;;;;5049466;28;20045;-79
2022/06/13 04:47:08;;;;;;;6.30;2.55;;;19.90;99.90;;;;;;5056095;28;20052;-79
2022/06/13 04:49:42;;;;;;;7.55;2.53;;;19.90;99.90;;;;;;5072418;28;20053;-80
2022/06/13 04:52:14;;;;;;;4.68;2.60;;;19.90;99.90;;;;;;5071626;28;20159;-80
2022/06/13 04:54:52;;;;;;;7.53;2.50;;;19.90;99.90;;;;;;5074968;28;20117;-80
2022/06/13 04:57:19;;;;;;;4.75;2.65;;;19.90;99.90;;;;;;5070768;28;20091;-81
2022/06/13 04:59:46;;;;;;;12.10;3.25;;;19.80;99.90;;;;;;5071689;28;20051;-78
2022/06/13 05:02:18;;;;;;;4.65;2.30;;;19.80;99.90;;;;;;5074140;28;20112;-82
2022/06/13 05:04:45;;;;;;;6.45;2.80;;;19.70;99.90;;;;;;5076487;28;20041;-78
2022/06/13 05:07:16;;;;;;;7.10;2.70;;;19.70;99.90;;;;;;5067498;28;20053;-80
2022/06/13 05:09:49;;;;;;;7.53;2.50;;;19.80;99.90;;;;;;5072330;28;20078;-80
2022/06/13 05:12:37;;;;;;;5.78;2.30;;;19.80;99.90;;;;;;5072633;28;20053;-80
2022/06/13 05:15:15;;;;;;;8.38;3.05;;;19.90;99.90;;;;;;5071776;28;20051;-81
2022/06/13 05:18:09;;;;;;;5.90;2.90;;;20.00;99.90;;;;;;5070497;28;20375;-81
2022/06/13 05:21:19;;;;;;;4.65;2.50;;;20.00;99.90;;;;;;5074767;28;20052;-80
2022/06/13 05:24:06;;;;;;;8.65;2.70;;;20.10;99.90;;;;;;5070631;28;20045;-79
2022/06/13 05:26:32;;;;;;;5.57;2.90;;;20.20;99.90;;;;;;5069125;28;20055;-80
2022/06/13 05:29:00;;;;;;;4.53;2.50;;;20.20;99.90;;;;;;5071608;28;20052;-80
2022/06/13 05:31:28;;;;;;;7.30;2.20;;;20.20;99.90;;;;;;5071143;28;20064;-78
2022/06/13 05:33:58;;;;;;;7.03;1.98;;;20.10;99.90;;;;;;5070145;28;20506;-78
2022/06/13 05:36:26;;;;;;;5.93;2.78;;;20.10;99.90;;;;;;5071771;28;20104;-77
2022/06/13 05:39:00;;;;;;;4.38;2.05;;;20.10;99.90;;;;;;5064422;28;20071;-78
2022/06/13 05:41:27;;;;;;;9.18;2.60;;;20.20;99.90;;;;;;5071348;28;20048;-77
2022/06/13 05:43:54;;;;;;;6.95;1.83;;;20.20;99.90;;;;;;5071189;28;20045;-78
2022/06/13 05:46:32;;;;;;;3.90;1.80;;;20.10;99.90;;;;;;5073137;28;20048;-77
2022/06/13 05:48:59;;;;;;;5.07;1.75;;;20.10;99.90;;;;;;5068243;28;20060;-78
2022/06/13 05:51:26;;;;;;;6.28;1.75;;;20.00;99.90;;;;;;5075336;28;20083;-78
2022/06/13 05:53:53;;;;;;;4.35;1.83;;;20.00;99.90;;;;;;5072586;28;20053;-78
2022/06/13 05:56:20;;;;;;;6.50;1.70;;;19.90;99.90;;;;;;5074443;28;20646;-78
2022/06/13 05:58:47;;;;;;;7.32;2.63;;;20.00;99.90;;;;;;5073405;28;20046;-77
2022/06/13 06:01:14;;;;;;;5.82;1.80;;;20.10;99.90;;;;;;5074188;28;20048;-78
2022/06/13 06:03:42;;;;;;;6.45;1.65;;;20.10;99.90;;;;;;5075304;28;20051;-80
2022/06/13 06:06:38;;;;;;;8.25;1.88;;;20.10;99.90;;;;;;5073385;28;20064;-80
2022/06/13 06:09:06;;;;;;;3.75;1.63;;;20.10;99.90;;;;;;5057682;28;20049;-79
2022/06/13 06:11:33;;;;;;;4.72;1.80;;;20.00;99.90;;;;;;5075663;28;20079;-77
2022/06/13 06:13:59;;;;;;;6.30;1.77;;;20.00;99.90;;;;;;5071719;28;20068;-78
2022/06/13 06:16:26;;;;;;;8.57;2.28;;;20.10;99.90;;;;;;5074792;28;20044;-78
2022/06/13 06:18:54;;;;;;;8.13;2.20;;;20.00;99.90;;;;;;5072402;28;20091;-78
2022/06/13 06:21:21;;;;;;;12.48;2.60;;;20.10;99.90;;;;;;5072867;28;20047;-78
2022/06/13 06:23:48;;;;;;;4.75;1.63;;;20.20;99.90;;;;;;5072331;28;20092;-80
2022/06/13 06:26:19;;;;;;;4.05;1.90;;;20.10;99.90;;;;;;5072750;28;20041;-80
2022/06/13 06:28:46;;;;;;;5.65;1.80;;;20.10;99.90;;;;;;5073895;28;20056;-78
2022/06/13 06:31:13;;;;;;;6.28;2.00;;;20.20;99.90;;;;;;5069859;28;20048;-79
2022/06/13 06:33:40;;;;;;;7.95;1.88;;;20.10;99.90;;;;;;5066516;28;20049;-77
2022/06/13 06:36:10;;;;;;;7.20;1.70;;;20.10;99.90;;;;;;5073389;28;20418;-79
2022/06/13 06:38:36;;;;;;;7.10;1.90;;;20.10;99.90;;;;;;5053434;28;20045;-77
2022/06/13 06:41:03;;;;;;;6.70;1.95;;;20.00;99.90;;;;;;5071993;28;20075;-78
2022/06/13 06:43:30;;;;;;;7.70;1.83;;;19.90;99.90;;;;;;5072473;28;20391;-78
2022/06/13 06:45:57;;;;;;;4.13;1.70;;;19.90;99.90;;;;;;5070914;28;20152;-81
2022/06/13 06:48:24;;;;;;;5.15;1.80;;;19.90;99.90;;;;;;5072612;28;20053;-77
2022/06/13 06:50:51;;;;;;;5.57;1.60;;;19.80;99.90;;;;;;5053216;28;20048;-80
2022/06/13 06:53:21;;;;;;;9.95;2.10;;;19.80;99.90;;;;;;5073657;28;20052;-77
2022/06/13 07:01:25;;;;;;;8.57;1.58;;;19.90;99.90;;;;;;5073445;28;20044;-79
2022/06/13 07:03:52;;;;;;;5.68;1.67;;;19.80;99.90;;;;;;5070989;28;20080;-80
2022/06/13 07:06:19;;;;;;;5.28;1.70;;;19.70;99.90;;;;;;5074717;28;20080;-79
2022/06/13 07:08:45;;;;;;;5.65;1.98;;;19.60;99.90;;;;;;5070585;28;20053;-78
2022/06/13 07:14:06;;;;;;;6.05;1.92;;;19.60;99.90;;;;;;5069942;28;20487;-80
2022/06/13 07:16:33;;;;;;;6.82;1.33;;;19.60;99.90;;;;;;5074072;28;20044;-79
2022/06/13 07:19:00;;;;;;;5.20;1.90;;;19.60;99.90;;;;;;5073281;28;20090;-77
2022/06/13 07:21:27;;;;;;;5.85;1.67;;;19.60;99.90;;;;;;5079479;28;20522;-77
2022/06/13 07:23:53;;;;;;;7.22;1.60;;;19.60;99.90;;;;;;5077054;28;20105;-80
2022/06/13 07:26:20;;;;;;;5.95;1.90;;;19.60;99.90;;;;;;5076910;28;20052;-78
2022/06/13 07:28:53;;;;;;;4.53;1.90;;;19.70;99.90;;;;;;5064835;28;20045;-78
2022/06/13 07:31:22;;;;;;;6.00;2.03;;;19.70;99.90;;;;;;5074653;28;20104;-78
2022/06/13 07:33:50;;;;;;;6.97;2.27;;;19.80;99.90;;;;;;5072492;28;20083;-79
2022/06/13 07:36:18;;;;;;;8.43;2.13;;;19.80;99.90;;;;;;5071093;28;20477;-78
2022/06/13 07:38:45;;;;;;;6.50;1.52;;;19.80;99.90;;;;;;5053631;28;20045;-78
2022/06/13 07:41:19;;;;;;;6.90;2.05;;;19.90;99.90;;;;;;5071133;28;20103;-77
2022/06/13 07:43:46;;;;;;;7.38;1.65;;;19.90;99.90;;;;;;5069136;28;20490;-78
2022/06/13 07:46:13;;;;;;;11.05;2.00;;;19.90;99.90;;;;;;5065708;28;20048;-77
2022/06/13 07:48:40;;;;;;;6.00;1.90;;;19.80;99.90;;;;;;5071925;28;20048;-80
2022/06/13 07:51:07;;;;;;;7.75;2.15;;;19.80;99.90;;;;;;5070174;28;20059;-77
2022/06/13 07:53:35;;;;;;;4.80;1.75;;;19.90;99.90;;;;;;5070750;28;20511;-78
2022/06/13 07:56:24;;;;;;;7.18;1.90;;;19.80;99.90;;;;;;5065386;28;20049;-79
2022/06/13 07:58:54;;;;;;;12.30;2.10;;;19.80;99.90;;;;;;5071136;28;20106;-78
2022/06/13 08:01:21;;;;;;;5.10;1.90;;;19.90;99.90;;;;;;5071352;28;20113;-78
2022/06/13 08:03:49;;;;;;;6.68;2.40;;;19.90;99.90;;;;;;5066490;28;20056;-79
2022/06/13 08:06:16;;;;;;;7.78;1.70;;;19.90;99.90;;;;;;5070824;28;20040;-78
2022/06/13 08:08:45;;;;;;;6.13;2.22;;;19.90;99.90;;;;;;5068309;28;20045;-78
2022/06/13 08:11:15;;;;;;;7.10;2.10;;;19.90;99.90;;;;;;5065492;28;20076;-79
2022/06/13 08:13:42;;;;;;;5.75;2.33;;;19.90;99.90;;;;;;5072399;28;20048;-79
2022/06/13 08:16:11;;;;;;;13.75;2.72;;;20.00;99.90;;;;;;5070444;28;20088;-78
2022/06/13 08:18:39;;;;;;;5.95;2.75;;;19.90;99.90;;;;;;5070646;28;20098;-78
2022/06/13 08:21:07;;;;;;;9.57;2.20;;;20.00;99.90;;;;;;5071954;28;20490;-79
2022/06/13 08:23:33;;;;;;;4.40;1.63;;;20.00;99.90;;;;;;5069834;28;20055;-79
2022/06/13 08:26:01;;;;;;;10.77;2.10;;;20.10;99.90;;;;;;5073011;28;20045;-79
2022/06/13 08:28:28;;;;;;;9.15;2.78;;;20.10;99.90;;;;;;5068998;28;20045;-79
2022/06/13 08:30:59;;;;;;;6.43;2.10;;;20.10;99.90;;;;;;5073020;28;20528;-80
2022/06/13 08:33:26;;;;;;;7.07;1.75;;;20.10;99.90;;;;;;5068642;28;20091;-77
2022/06/13 08:35:53;;;;;;;6.28;2.10;;;20.10;99.90;;;;;;5069655;28;20058;-78
2022/06/13 08:38:21;;;;;;;6.68;1.77;;;20.10;99.90;;;;;;5069587;28;20128;-79
2022/06/13 08:41:04;;;;;;;6.30;2.03;;;20.10;99.90;;;;;;5069863;28;20071;-79
2022/06/13 08:43:43;;;;;;;8.45;1.70;;;20.20;99.90;;;;;;5066324;28;20045;-78
2022/06/13 08:46:23;;;;;;;7.20;2.80;;;20.20;99.90;;;;;;5068010;28;20474;-78
2022/06/13 08:48:57;;;;;;;7.93;1.83;;;20.20;99.90;;;;;;5066095;28;20191;-78
2022/06/13 08:51:37;;;;;;;9.30;2.30;;;20.20;99.90;;;;;;5068092;28;20052;-78
2022/06/13 08:54:09;;;;;;;5.13;1.77;;;20.30;99.90;;;;;;5065543;28;20495;-78
2022/06/13 08:56:36;;;;;;;7.50;2.72;;;20.30;99.90;;;;;;5069450;28;20076;-80
2022/06/13 08:59:23;;;;;;;4.57;1.90;;;20.40;99.90;;;;;;5052485;28;20049;-78
2022/06/13 09:01:58;;;;;;;9.77;2.80;;;20.40;99.90;;;;;;5065155;28;20052;-80
2022/06/13 09:04:38;;;;;;;5.15;2.05;;;20.40;99.90;;;;;;5070127;28;20044;-79
2022/06/13 09:07:17;;;;;;;7.65;2.47;;;20.50;99.90;;;;;;5066106;28;20411;-79
2022/06/13 09:10:01;;;;;;;5.20;1.90;;;20.50;99.90;;;;;;5067371;28;20049;-79
2022/06/13 09:12:37;;;;;;;5.55;1.63;;;20.50;99.90;;;;;;5064354;28;20478;-79
2022/06/13 09:15:14;;;;;;;8.20;2.28;;;20.60;99.90;;;;;;5061924;28;20056;-79
2022/06/13 09:18:15;;;;;;;6.35;1.80;;;20.60;99.90;;;;;;5068050;28;20190;-78
2022/06/13 09:21:21;;;;;;;5.95;1.92;;;20.70;99.90;;;;;;5044024;28;20427;-78
2022/06/13 09:24:21;;;;;;;7.78;2.20;;;20.70;99.90;;;;;;5031362;28;20045;-78
2022/06/13 09:26:59;;;;;;;7.35;1.95;;;20.80;99.90;;;;;;5072528;28;20458;-78
2022/06/13 09:29:33;;;;;;;8.70;2.08;;;20.80;99.90;;;;;;5053181;28;20128;-78
2022/06/13 09:32:08;;;;;;;6.53;2.08;;;20.90;99.90;;;;;;5068882;28;20049;-79
2022/06/13 09:34:45;;;;;;;6.88;2.13;;;21.00;99.90;;;;;;5072554;28;20045;-78
2022/06/13 09:37:36;;;;;;;6.60;1.90;;;21.00;99.90;;;;;;5068020;28;20076;-78
2022/06/13 09:40:04;;;;;;;7.80;2.00;;;21.00;99.90;;;;;;5054726;28;20392;-77
2022/06/13 09:42:37;;;;;;;4.13;1.95;;;21.10;99.90;;;;;;5073380;28;20045;-79
2022/06/13 09:45:09;;;;;;;6.75;2.45;;;21.20;99.90;;;;;;5072341;28;20052;-80
2022/06/13 09:47:48;;;;;;;5.60;2.00;;;21.20;99.90;;;;;;5071517;28;20083;-79
2022/06/13 09:50:38;;;;;;;8.98;1.92;;;21.20;99.90;;;;;;5069134;28;20053;-79
2022/06/13 09:53:30;;;;;;;10.38;1.90;;;21.20;99.90;;;;;;5068005;28;20150;-78
2022/06/13 09:56:18;;;;;;;8.88;2.92;;;21.20;99.90;;;;;;5067950;28;20049;-79
2022/06/13 09:58:56;;;;;;;7.07;1.98;;;21.20;99.90;;;;;;5071554;28;20105;-79
2022/06/13 10:01:28;;;;;;;8.52;2.08;;;21.20;99.90;;;;;;5071086;28;20045;-78
2022/06/13 10:04:10;;;;;;;6.95;2.70;;;21.30;99.90;;;;;;5074782;28;20514;-80
2022/06/13 10:06:53;;;;;;;5.93;2.08;;;21.40;99.90;;;;;;5068681;28;20109;-78
2022/06/13 10:09:36;;;;;;;5.10;2.25;;;21.40;99.90;;;;;;5053058;28;20068;-79
2022/06/13 10:12:06;;;;;;;8.98;2.40;;;21.50;99.90;;;;;;5074828;28;20048;-79
2022/06/13 10:14:56;;;;;;;7.28;1.85;;;21.60;99.90;;;;;;5072683;28;20108;-79
2022/06/13 10:17:49;;;;;;;4.15;1.63;;;21.70;99.90;;;;;;5071466;28;20051;-77
2022/06/13 10:20:23;;;;;;;8.82;2.22;;;21.80;99.90;;;;;;5061693;28;20098;-79
2022/06/13 10:23:09;;;;;;;7.53;2.05;;;21.80;99.90;;;;;;5067150;28;20068;-81
2022/06/13 10:25:39;;;;;;;6.40;2.20;;;21.80;99.90;;;;;;5074442;28;20414;-80
2022/06/13 10:28:17;;;;;;;6.90;2.03;;;21.80;99.90;;;;;;5068876;28;20049;-79
2022/06/13 10:30:57;;;;;;;5.60;1.88;;;21.80;99.90;;;;;;5073769;28;20059;-79
2022/06/13 10:33:55;;;;;;;4.68;1.63;;;21.80;99.90;;;;;;5073598;28;20065;-78
2022/06/13 10:36:31;;;;;;;6.13;1.80;;;21.80;99.90;;;;;;5074678;28;20128;-79
2022/06/13 10:39:05;;;;;;;10.63;1.70;;;22.00;99.90;;;;;;5074894;28;20113;-78
2022/06/13 10:41:36;;;;;;;7.60;2.17;;;22.10;99.90;;;;;;5074867;28;20449;-77
2022/06/13 10:44:07;;;;;;;5.95;1.73;;;22.10;99.90;;;;;;5080669;28;20072;-79
2022/06/13 10:46:34;;;;;;;6.60;2.40;;;22.10;99.90;;;;;;5073151;28;20400;-79
2022/06/13 10:49:17;;;;;;;8.85;1.80;;;22.10;99.90;;;;;;5073412;28;20052;-80
2022/06/13 10:51:46;;;;;;;8.30;1.98;;;22.00;99.90;;;;;;5069608;28;20049;-78
2022/06/13 10:54:18;;;;;;;6.15;1.75;;;22.00;99.90;;;;;;5071151;28;20052;-79
2022/06/13 10:57:05;;;;;;;5.22;1.65;;;22.00;99.90;;;;;;5070214;28;20207;-79
2022/06/13 10:59:35;;;;;;;3.85;1.80;;;22.00;99.90;;;;;;5069802;28;20049;-79
2022/06/13 11:02:19;;;;;;;9.20;2.42;;;22.00;99.90;;;;;;5071003;28;20057;-78
2022/06/13 11:05:13;;;;;;;4.15;1.60;;;22.00;99.90;;;;;;5067708;28;20052;-80
2022/06/13 11:07:43;;;;;;;6.95;1.80;;;22.00;99.90;;;;;;5068566;28;20057;-79
2022/06/13 11:10:28;;;;;;;6.22;1.50;;;22.00;99.90;;;;;;5072258;28;20396;-80
2022/06/13 11:12:55;;;;;;;7.78;2.35;;;22.10;99.90;;;;;;5068551;28;20080;-78
2022/06/13 11:24:18;;;;;;;4.07;1.50;;;22.10;99.90;;;;;;5072805;28;20494;-79
2022/06/13 11:29:37;;;;;;;6.82;1.65;;;22.20;99.90;;;;;;5066622;28;20045;-79
2022/06/13 11:32:17;;;;;;;5.38;1.60;;;22.20;99.90;;;;;;5072685;28;20312;-79
2022/06/13 11:34:44;;;;;;;5.53;1.60;;;22.20;99.90;;;;;;5072252;28;20135;-79
2022/06/13 11:37:23;;;;;;;6.60;1.88;;;22.30;99.90;;;;;;5069760;28;20053;-81
2022/06/13 11:39:52;;;;;;;6.25;1.90;;;22.30;99.90;;;;;;5056075;28;20071;-78
2022/06/13 11:42:22;;;;;;;3.85;1.45;;;22.30;99.90;;;;;;5077579;28;20127;-79
2022/06/13 11:45:03;;;;;;;4.22;1.40;;;22.30;99.90;;;;;;5074806;28;20040;-81
2022/06/13 11:47:42;;;;;;;4.40;1.38;;;22.30;99.90;;;;;;5069469;28;20055;-81
2022/06/13 11:50:20;;;;;;;3.55;1.25;;;22.30;99.90;;;;;;5072990;28;20044;-79
2022/06/13 11:55:57;;;;;;;6.13;1.60;;;22.40;99.90;;;;;;5068764;28;20045;-78
2022/06/13 11:58:33;;;;;;;5.97;1.63;;;22.40;99.90;;;;;;5065802;28;20044;-80
2022/06/13 12:01:29;;;;;;;7.93;1.85;;;22.40;99.90;;;;;;5072037;28;20108;-81
2022/06/13 12:04:14;;;;;;;7.18;1.73;;;22.50;99.90;;;;;;5069547;28;20041;-81
2022/06/13 12:06:47;;;;;;;4.88;1.40;;;22.50;99.90;;;;;;5067771;28;20507;-79
2022/06/13 12:09:31;;;;;;;6.32;1.50;;;22.50;99.90;;;;;;5070341;28;20157;-80
2022/06/13 12:12:04;;;;;;;5.68;1.60;;;22.50;99.90;;;;;;5067314;28;20052;-79
2022/06/13 12:14:37;;;;;;;5.90;1.70;;;22.50;99.90;;;;;;5068458;28;20059;-78
2022/06/13 12:17:23;;;;;;;9.90;2.00;;;22.50;99.90;;;;;;5071354;28;20116;-78
2022/06/13 12:20:15;;;;;;;6.63;1.75;;;22.50;99.90;;;;;;5067562;28;20482;-78
2022/06/13 12:22:57;;;;;;;6.65;1.90;;;22.60;99.90;;;;;;5067939;28;20049;-78
2022/06/13 12:25:26;;;;;;;4.18;1.55;;;22.60;99.90;;;;;;5046431;28;20115;-78
2022/06/13 12:28:06;;;;;;;5.70;1.60;;;22.70;99.90;;;;;;5068924;28;20123;-78
2022/06/13 12:30:35;;;;;;;6.90;1.43;;;22.70;99.90;;;;;;5072192;28;20072;-78
2022/06/13 12:33:10;;;;;;;3.17;1.80;;;22.70;99.90;;;;;;5063393;28;20418;-78
2022/06/13 12:35:59;;;;;;;6.78;1.50;;;22.80;99.90;;;;;;5069051;28;20468;-77
2022/06/13 12:38:31;;;;;;;5.78;1.50;;;22.80;99.90;;;;;;5067522;28;20447;-82
2022/06/13 12:41:15;;;;;;;4.32;1.50;;;22.80;99.90;;;;;;5072671;28;20511;-80
2022/06/13 12:43:53;;;;;;;5.75;1.38;;;22.80;99.90;;;;;;5069680;28;20045;-80
2022/06/13 12:46:54;;;;;;;3.67;1.40;;;22.80;99.90;;;;;;5070736;28;20044;-80
2022/06/13 12:49:45;;;;;;;4.10;1.50;;;22.90;99.90;;;;;;5067303;28;20052;-80
2022/06/13 12:52:42;;;;;;;5.07;1.63;;;22.90;99.90;;;;;;5067293;28;20083;-81
2022/06/13 12:55:30;;;;;;;3.72;1.40;;;23.00;99.90;;;;;;5071360;28;20048;-81
2022/06/13 12:58:25;;;;;;;6.43;1.42;;;23.00;99.90;;;;;;5075037;28;20067;-80
2022/06/13 13:00:58;;;;;;;3.58;1.48;;;23.00;99.90;;;;;;5071036;28;20577;-81
2022/06/13 13:03:55;;;;;;;6.75;1.60;;;23.00;99.90;;;;;;5077277;28;20041;-81
2022/06/13 13:06:40;;;;;;;3.78;1.40;;;23.00;99.90;;;;;;5075275;28;20497;-79
2022/06/13 13:09:52;;;;;;;4.32;1.42;;;23.10;99.90;;;;;;5072172;28;20048;-80
2022/06/13 13:12:49;;;;;;;4.68;1.35;;;23.10;99.90;;;;;;5005168;28;20061;-80
2022/06/13 13:15:25;;;;;;;5.85;1.40;;;23.10;99.90;;;;;;5071013;28;20056;-80
2022/06/13 13:17:51;;;;;;;5.05;1.85;;;23.10;99.90;;;;;;5079089;28;20108;-80
2022/06/13 13:20:38;;;;;;;5.35;1.45;;;23.10;99.90;;;;;;5076336;28;20496;-80
2022/06/13 13:23:31;;;;;;;5.35;1.30;;;23.20;99.90;;;;;;5074126;28;20566;-80
2022/06/13 13:26:21;;;;;;;5.10;1.33;;;23.20;99.90;;;;;;5073146;28;20045;-79
2022/06/13 13:29:15;;;;;;;4.22;1.33;;;23.30;99.90;;;;;;5054899;28;20049;-79
2022/06/13 13:31:52;;;;;;;2.92;1.20;;;23.30;99.90;;;;;;5072383;28;20515;-79
2022/06/13 13:34:41;;;;;;;3.60;1.10;;;23.30;99.90;;;;;;5075277;28;20056;-79
2022/06/13 13:37:24;;;;;;;3.25;1.38;;;23.30;99.90;;;;;;5073303;28;20128;-80
2022/06/13 13:40:21;;;;;;;6.68;1.70;;;23.40;99.90;;;;;;5070684;28;20049;-77
2022/06/13 13:43:15;;;;;;;5.75;1.55;;;23.50;99.90;;;;;;5072982;28;20503;-77
2022/06/13 13:45:49;;;;;;;4.43;1.48;;;23.50;99.90;;;;;;5073108;28;20045;-78
2022/06/13 13:48:41;;;;;;;7.05;1.77;;;23.50;99.90;;;;;;5078760;28;20059;-78
2022/06/13 13:51:18;;;;;;;2.70;1.35;;;23.50;99.90;;;;;;5068131;28;20593;-78
2022/06/13 13:54:00;;;;;;;4.38;1.02;;;23.50;99.90;;;;;;5069470;28;20081;-77
2022/06/13 13:56:50;;;;;;;4.88;1.33;;;23.50;99.90;;;;;;5075395;28;20072;-79
2022/06/13 13:59:21;;;;;;;4.45;1.00;;;23.60;99.90;;;;;;5038934;28;20052;-80
2022/06/13 14:01:58;;;;;;;5.18;1.40;;;23.60;99.90;;;;;;5069274;28;20127;-78
2022/06/13 14:04:24;;;;;;;5.93;1.15;;;23.60;99.90;;;;;;5064183;28;20051;-80